createdAt,value
2018-09-23T00:01:09.508Z,10.80
2018-09-23T00:03:38.423Z,10.80
2018-09-23T00:06:11.354Z,10.80
2018-09-23T00:08:39.918Z,10.80
2018-09-23T00:11:12.204Z,10.80
2018-09-23T00:13:40.762Z,10.80
2018-09-23T00:16:13.160Z,10.70
2018-09-23T00:18:41.662Z,10.70
2018-09-23T00:21:10.341Z,10.70
2018-09-23T00:23:43.507Z,10.70
2018-09-23T00:26:12.059Z,10.70
2018-09-23T00:28:44.367Z,10.70
2018-09-23T00:31:12.972Z,10.70
2018-09-23T00:33:45.242Z,10.70
2018-09-23T00:36:13.791Z,10.70
2018-09-23T00:38:42.493Z,10.70
2018-09-23T00:41:13.856Z,10.70
2018-09-23T00:43:42.414Z,10.70
2018-09-23T00:46:14.739Z,10.70
2018-09-23T00:48:43.292Z,10.70
2018-09-23T00:51:11.796Z,10.70
2018-09-23T00:53:43.287Z,10.60
2018-09-23T00:56:11.812Z,10.60
2018-09-23T00:58:47.874Z,10.60
2018-09-23T01:01:16.407Z,10.60
2018-09-23T01:03:44.939Z,10.60
2018-09-23T01:06:17.292Z,10.60
2018-09-23T01:08:45.818Z,10.60
2018-09-23T01:11:14.360Z,10.50
2018-09-23T01:13:45.963Z,10.50
2018-09-23T01:16:14.499Z,10.50
2018-09-23T01:18:46.831Z,10.50
2018-09-23T01:21:15.363Z,10.50
2018-09-23T01:23:43.913Z,10.50
2018-09-23T01:26:16.387Z,10.40
2018-09-23T01:28:44.979Z,10.40
2018-09-23T01:31:17.171Z,10.30
2018-09-23T01:33:45.691Z,10.30
2018-09-23T01:36:22.085Z,10.30
2018-09-23T01:38:50.604Z,10.20
2018-09-23T01:41:23.453Z,10.20
2018-09-23T01:43:51.979Z,10.20
2018-09-23T01:46:24.342Z,10.10
2018-09-23T01:48:52.879Z,10.10
2018-09-23T01:51:21.423Z,10.00
2018-09-23T01:53:52.915Z,10.00
2018-09-23T01:56:21.436Z,9.90
2018-09-23T01:58:57.523Z,9.90
2018-09-23T02:01:27.762Z,9.80
2018-09-23T02:03:59.362Z,9.70
2018-09-23T02:06:27.928Z,9.70
2018-09-23T02:09:00.101Z,9.70
2018-09-23T02:11:28.653Z,9.70
2018-09-23T02:13:57.238Z,9.60
2018-09-23T02:16:29.679Z,9.60
2018-09-23T02:18:58.207Z,9.50
2018-09-23T02:21:30.567Z,9.50
2018-09-23T02:23:59.078Z,9.50
2018-09-23T02:26:31.431Z,9.50
2018-09-23T02:28:59.962Z,9.50
2018-09-23T02:31:28.493Z,9.50
2018-09-23T02:33:59.964Z,9.50
2018-09-23T02:36:28.517Z,9.40
2018-09-23T02:38:57.050Z,9.40
2018-09-23T02:41:29.446Z,9.40
2018-09-23T02:43:57.934Z,9.50
2018-09-23T02:46:30.355Z,9.50
2018-09-23T02:48:58.877Z,9.40
2018-09-23T02:51:27.382Z,9.40
2018-09-23T02:53:58.923Z,9.40
2018-09-23T02:56:27.454Z,9.40
2018-09-23T02:59:03.523Z,9.40
2018-09-23T03:01:32.054Z,9.30
2018-09-23T03:04:04.421Z,9.40
2018-09-23T03:06:33.169Z,9.30
2018-09-23T03:09:05.251Z,9.40
2018-09-23T03:11:33.795Z,9.30
2018-09-23T03:14:02.447Z,9.30
2018-09-23T03:16:33.880Z,9.30
2018-09-23T03:19:02.438Z,9.30
2018-09-23T03:21:31.096Z,9.30
2018-09-23T03:24:03.330Z,9.20
2018-09-23T03:26:31.814Z,9.30
2018-09-23T03:29:00.300Z,9.30
2018-09-23T03:31:31.978Z,9.30
2018-09-23T03:34:00.517Z,9.20
2018-09-23T03:36:29.074Z,9.20
2018-09-23T03:39:05.109Z,9.10
2018-09-23T03:41:33.649Z,9.10
2018-09-23T03:44:05.035Z,9.10
2018-09-23T03:46:33.592Z,9.20
2018-09-23T03:49:05.991Z,9.20
2018-09-23T03:51:34.581Z,9.10
2018-09-23T03:54:07.784Z,9.10
2018-09-23T03:56:36.357Z,9.10
2018-09-23T03:59:11.293Z,9.10
2018-09-23T04:01:39.873Z,9.20
2018-09-23T04:04:12.148Z,9.10
2018-09-23T04:06:40.687Z,9.20
2018-09-23T04:09:13.115Z,9.30
2018-09-23T04:11:41.676Z,9.30
2018-09-23T04:14:10.187Z,9.30
2018-09-23T04:16:42.570Z,9.30
2018-09-23T04:19:11.097Z,9.30
2018-09-23T04:21:43.449Z,9.40
2018-09-23T04:24:11.956Z,9.40
2018-09-23T04:26:40.468Z,9.40
2018-09-23T04:29:12.991Z,9.40
2018-09-23T04:31:41.508Z,9.30
2018-09-23T04:34:10.051Z,9.30
2018-09-23T04:36:42.448Z,9.20
2018-09-23T04:39:11.904Z,9.20
2018-09-23T04:41:43.391Z,9.20
2018-09-23T04:44:11.909Z,9.30
2018-09-23T04:46:40.442Z,9.30
2018-09-23T04:49:11.912Z,9.30
2018-09-23T04:51:40.540Z,9.40
2018-09-23T04:54:09.086Z,9.30
2018-09-23T04:56:41.468Z,9.40
2018-09-23T04:59:13.178Z,9.40
2018-09-23T05:01:45.003Z,9.40
2018-09-23T05:04:13.566Z,9.40
2018-09-23T05:06:42.102Z,9.50
2018-09-23T05:09:23.585Z,9.50
2018-09-23T05:11:52.151Z,9.50
2018-09-23T05:14:24.532Z,9.60
2018-09-23T05:16:53.047Z,9.60
2018-09-23T05:19:21.630Z,9.70
2018-09-23T05:21:53.150Z,9.70
2018-09-23T05:24:21.668Z,9.70
2018-09-23T05:26:50.183Z,9.70
2018-09-23T05:29:22.598Z,9.70
2018-09-23T05:31:51.093Z,9.70
2018-09-23T05:34:23.473Z,9.80
2018-09-23T05:36:51.953Z,9.80
2018-09-23T05:39:20.650Z,9.80
2018-09-23T05:41:52.087Z,9.90
2018-09-23T05:44:20.695Z,9.90
2018-09-23T05:46:49.207Z,10.00
2018-09-23T05:49:21.529Z,10.00
2018-09-23T05:51:50.112Z,10.10
2018-09-23T05:54:22.517Z,10.10
2018-09-23T05:56:51.030Z,10.10
2018-09-23T05:59:26.907Z,10.20
2018-09-23T06:01:55.434Z,10.20
2018-09-23T06:04:23.973Z,10.30
2018-09-23T06:06:56.447Z,10.30
2018-09-23T06:09:25.072Z,10.30
2018-09-23T06:11:59.182Z,10.40
2018-09-23T06:14:27.728Z,10.50
2018-09-23T06:17:00.011Z,10.50
2018-09-23T06:19:28.652Z,10.50
2018-09-23T06:21:57.193Z,10.50
2018-09-23T06:24:29.589Z,10.50
2018-09-23T06:26:58.136Z,10.60
2018-09-23T06:29:30.349Z,10.70
2018-09-23T06:31:58.894Z,10.70
2018-09-23T06:34:27.437Z,10.70
2018-09-23T06:36:59.056Z,10.70
2018-09-23T06:39:27.613Z,10.80
2018-09-23T06:42:08.028Z,10.80
2018-09-23T06:44:36.746Z,10.80
2018-09-23T06:47:09.807Z,10.90
2018-09-23T06:49:38.400Z,11.00
2018-09-23T06:52:11.609Z,11.00
2018-09-23T06:54:40.169Z,11.10
2018-09-23T06:57:12.536Z,11.10
2018-09-23T06:59:44.315Z,11.10
2018-09-23T07:02:16.077Z,11.10
2018-09-23T07:04:44.698Z,11.20
2018-09-23T07:07:20.911Z,11.30
2018-09-23T07:09:49.444Z,11.40
2018-09-23T07:12:21.472Z,11.50
2018-09-23T07:14:52.622Z,11.50
2018-09-23T07:17:24.201Z,11.60
2018-09-23T07:19:52.771Z,11.60
2018-09-23T07:22:21.387Z,11.60
2018-09-23T07:24:53.752Z,11.80
2018-09-23T07:27:22.373Z,11.90
2018-09-23T07:29:54.635Z,12.00
2018-09-23T07:32:23.220Z,11.90
2018-09-23T07:34:55.483Z,11.90
2018-09-23T07:37:24.075Z,12.10
2018-09-23T07:39:56.397Z,12.20
2018-09-23T07:42:25.071Z,12.30
2018-09-23T07:44:57.173Z,12.30
2018-09-23T07:47:25.774Z,12.50
2018-09-23T07:49:54.331Z,12.60
2018-09-23T07:52:26.746Z,12.80
2018-09-23T07:54:55.283Z,13.00
2018-09-23T07:57:27.662Z,13.10
2018-09-23T07:59:59.348Z,13.30
2018-09-23T08:02:31.230Z,13.60
2018-09-23T08:04:59.764Z,13.70
2018-09-23T08:07:28.308Z,13.90
2018-09-23T08:10:00.695Z,13.80
2018-09-23T08:12:29.292Z,13.90
2018-09-23T08:15:01.731Z,14.00
2018-09-23T08:17:30.219Z,13.90
2018-09-23T08:20:02.626Z,13.70
2018-09-23T08:22:31.161Z,14.00
2018-09-23T08:25:03.426Z,14.10
2018-09-23T08:27:31.970Z,14.10
2018-09-23T08:30:04.248Z,14.30
2018-09-23T08:32:32.757Z,14.10
2018-09-23T08:35:01.306Z,14.10
2018-09-23T08:37:33.792Z,14.10
2018-09-23T08:40:02.346Z,14.50
2018-09-23T08:42:38.220Z,14.50
2018-09-23T08:45:06.774Z,14.30
2018-09-23T08:47:38.250Z,14.30
2018-09-23T08:50:06.809Z,14.50
2018-09-23T08:52:35.326Z,14.60
2018-09-23T08:55:07.692Z,14.80
2018-09-23T08:57:36.228Z,14.40
2018-09-23T09:00:12.256Z,14.60
2018-09-23T09:02:40.797Z,14.70
2018-09-23T09:05:13.108Z,14.70
2018-09-23T09:07:41.725Z,14.80
2018-09-23T09:10:14.878Z,15.00
2018-09-23T09:12:43.505Z,15.00
2018-09-23T09:15:16.803Z,15.10
2018-09-23T09:17:45.402Z,15.00
2018-09-23T09:20:17.506Z,15.00
2018-09-23T09:22:46.160Z,15.10
2018-09-23T09:25:18.403Z,15.20
2018-09-23T09:27:47.098Z,15.30
2018-09-23T09:30:19.319Z,15.00
2018-09-23T09:32:47.857Z,14.90
2018-09-23T09:35:16.450Z,15.00
2018-09-23T09:37:49.741Z,15.10
2018-09-23T09:40:18.367Z,15.20
2018-09-23T09:42:50.635Z,15.00
2018-09-23T09:45:21.345Z,15.30
2018-09-23T09:47:53.218Z,15.50
2018-09-23T09:50:21.839Z,15.40
2018-09-23T09:52:50.383Z,15.50
2018-09-23T09:55:23.708Z,15.30
2018-09-23T09:57:52.327Z,15.40
2018-09-23T10:00:33.609Z,15.70
2018-09-23T10:03:03.015Z,15.60
2018-09-23T10:05:39.425Z,15.80
2018-09-23T10:08:07.906Z,15.70
2018-09-23T10:10:40.771Z,15.60
2018-09-23T10:13:09.470Z,15.80
2018-09-23T10:15:43.590Z,15.80
2018-09-23T10:18:12.279Z,15.90
2018-09-23T10:20:45.688Z,16.30
2018-09-23T10:23:14.367Z,16.00
2018-09-23T10:25:46.291Z,16.30
2018-09-23T10:28:14.844Z,16.60
2018-09-23T10:30:47.997Z,17.30
2018-09-23T10:33:16.569Z,17.20
2018-09-23T10:35:49.803Z,17.20
2018-09-23T10:38:18.435Z,17.20
2018-09-23T10:40:50.634Z,17.60
2018-09-23T10:43:19.306Z,17.30
2018-09-23T10:45:51.512Z,17.20
2018-09-23T10:48:20.063Z,17.00
2018-09-23T10:50:48.593Z,16.90
2018-09-23T10:53:24.742Z,17.10
2018-09-23T10:55:53.453Z,17.10
2018-09-23T10:58:25.462Z,17.20
2018-09-23T11:00:58.168Z,17.30
2018-09-23T11:03:30.991Z,17.40
2018-09-23T11:05:59.871Z,16.90
2018-09-23T11:08:32.825Z,16.80
2018-09-23T11:11:01.378Z,16.80
2018-09-23T11:13:29.879Z,16.50
2018-09-23T11:16:01.265Z,16.60
2018-09-23T11:18:29.873Z,16.70
2018-09-23T11:20:58.421Z,16.70
2018-09-23T11:23:30.820Z,16.30
2018-09-23T11:25:59.357Z,16.30
2018-09-23T11:28:31.677Z,16.20
2018-09-23T11:31:00.234Z,16.20
2018-09-23T11:33:28.760Z,16.40
2018-09-23T11:36:00.345Z,16.20
2018-09-23T11:38:30.167Z,16.00
2018-09-23T11:41:02.917Z,16.30
2018-09-23T11:43:31.819Z,16.40
2018-09-23T11:46:04.717Z,15.90
2018-09-23T11:48:33.300Z,16.00
2018-09-23T11:51:01.878Z,15.80
2018-09-23T11:53:33.426Z,15.70
2018-09-23T11:56:02.000Z,15.70
2018-09-23T11:58:34.208Z,15.50
2018-09-23T12:01:14.466Z,15.60
2018-09-23T12:03:47.766Z,15.40
2018-09-23T12:06:16.416Z,15.20
2018-09-23T12:08:48.683Z,15.20
2018-09-23T12:11:17.229Z,15.20
2018-09-23T12:13:49.599Z,15.00
2018-09-23T12:16:18.258Z,15.10
2018-09-23T12:18:50.394Z,15.00
2018-09-23T12:21:18.962Z,14.80
2018-09-23T12:23:51.364Z,14.60
2018-09-23T12:26:19.909Z,14.40
2018-09-23T12:28:48.443Z,14.50
2018-09-23T12:31:21.691Z,14.50
2018-09-23T12:33:50.297Z,14.10
2018-09-23T12:36:19.068Z,14.10
2018-09-23T12:38:51.206Z,14.20
2018-09-23T12:41:19.775Z,14.20
2018-09-23T12:43:48.372Z,14.00
2018-09-23T12:46:20.689Z,14.00
2018-09-23T12:48:49.269Z,13.90
2018-09-23T12:51:17.786Z,13.90
2018-09-23T12:53:49.314Z,13.90
2018-09-23T12:56:17.855Z,13.80
2018-09-23T12:58:46.448Z,13.70
2018-09-23T13:01:22.522Z,13.70
2018-09-23T13:03:51.230Z,13.60
2018-09-23T13:06:23.382Z,13.60
2018-09-23T13:08:51.892Z,13.50
2018-09-23T13:11:20.437Z,13.50
2018-09-23T13:13:52.916Z,13.40
2018-09-23T13:16:21.502Z,13.40
2018-09-23T13:18:54.026Z,13.20
2018-09-23T13:21:22.535Z,13.00
2018-09-23T13:23:54.639Z,13.00
2018-09-23T13:26:23.216Z,12.90
2018-09-23T13:28:51.759Z,12.90
2018-09-23T13:31:23.254Z,12.80
2018-09-23T13:33:51.823Z,12.80
2018-09-23T13:36:25.067Z,12.80
2018-09-23T13:38:53.583Z,12.80
2018-09-23T13:41:29.491Z,12.70
2018-09-23T13:43:58.052Z,12.70
2018-09-23T13:46:30.561Z,12.60
2018-09-23T13:48:59.292Z,12.50
2018-09-23T13:51:31.210Z,12.40
2018-09-23T13:53:59.859Z,12.30
2018-09-23T13:56:28.445Z,12.30
2018-09-23T13:59:00.700Z,12.30
2018-09-23T14:01:44.089Z,12.10
2018-09-23T14:04:30.755Z,12.10
2018-09-23T14:07:14.865Z,12.10
2018-09-23T14:10:01.509Z,12.10
2018-09-23T14:12:45.826Z,12.10
2018-09-23T14:15:32.355Z,12.00
2018-09-23T14:18:00.917Z,11.90
2018-09-23T14:20:29.440Z,11.90
2018-09-23T14:23:01.904Z,11.90
2018-09-23T14:25:30.459Z,11.70
2018-09-23T14:28:02.753Z,11.60
2018-09-23T14:30:31.316Z,11.60
2018-09-23T14:32:59.880Z,11.50
2018-09-23T14:35:31.404Z,11.50
2018-09-23T14:37:59.937Z,11.50
2018-09-23T14:40:36.239Z,11.40
2018-09-23T14:43:04.836Z,11.40
2018-09-23T14:45:36.695Z,11.40
2018-09-23T14:48:05.305Z,11.40
2018-09-23T14:50:33.831Z,11.30
2018-09-23T14:53:05.353Z,11.30
2018-09-23T14:55:34.008Z,11.30
2018-09-23T14:58:07.505Z,11.20
2018-09-23T15:00:36.166Z,11.30
2018-09-23T15:03:12.121Z,11.20
2018-09-23T15:05:40.746Z,11.30
2018-09-23T15:08:12.509Z,11.20
2018-09-23T15:10:41.020Z,11.20
2018-09-23T15:13:09.685Z,11.20
2018-09-23T15:15:49.345Z,11.10
2018-09-23T15:18:17.999Z,11.10
2018-09-23T15:20:51.026Z,11.10
2018-09-23T15:23:19.621Z,11.00
2018-09-23T15:25:51.974Z,11.00
2018-09-23T15:28:20.651Z,11.10
2018-09-23T15:30:52.762Z,11.10
2018-09-23T15:33:21.572Z,11.10
2018-09-23T15:35:53.708Z,11.00
2018-09-23T15:38:22.310Z,11.00
2018-09-23T15:40:55.454Z,10.90
2018-09-23T15:43:24.184Z,10.80
2018-09-23T15:45:56.344Z,10.70
2018-09-23T15:48:24.958Z,10.70
2018-09-23T15:50:53.507Z,10.70
2018-09-23T15:53:25.818Z,10.80
2018-09-23T15:55:54.494Z,10.60
2018-09-23T15:58:26.814Z,10.60
2018-09-23T16:00:55.424Z,10.70
2018-09-23T16:03:27.595Z,10.60
2018-09-23T16:05:56.106Z,10.60
2018-09-23T16:08:24.677Z,10.60
2018-09-23T16:10:57.176Z,10.50
2018-09-23T16:13:25.795Z,10.50
2018-09-23T16:16:01.574Z,10.40
2018-09-23T16:18:30.196Z,10.40
2018-09-23T16:21:02.549Z,10.40
2018-09-23T16:23:31.180Z,10.40
2018-09-23T16:26:03.452Z,10.40
2018-09-23T16:28:32.080Z,10.30
2018-09-23T16:31:05.232Z,10.30
2018-09-23T16:33:33.759Z,10.30
2018-09-23T16:36:07.308Z,10.20
2018-09-23T16:38:35.840Z,10.20
2018-09-23T16:41:08.787Z,10.20
2018-09-23T16:43:37.407Z,10.10
2018-09-23T16:46:09.617Z,10.10
2018-09-23T16:48:38.225Z,10.00
2018-09-23T16:51:10.479Z,10.00
2018-09-23T16:53:39.049Z,10.10
2018-09-23T16:56:11.365Z,10.10
2018-09-23T16:58:39.898Z,10.00
2018-09-23T17:01:08.488Z,9.90
2018-09-23T17:03:40.815Z,9.90
2018-09-23T17:06:09.685Z,9.90
2018-09-23T17:08:41.756Z,9.90
2018-09-23T17:11:10.317Z,9.80
2018-09-23T17:13:38.912Z,9.80
2018-09-23T17:16:14.900Z,9.80
2018-09-23T17:18:43.469Z,9.80
2018-09-23T17:21:15.745Z,9.70
2018-09-23T17:23:59.712Z,9.80
2018-09-23T17:26:32.080Z,9.80
2018-09-23T17:29:00.669Z,9.70
2018-09-23T17:31:32.913Z,9.70
2018-09-23T17:34:01.480Z,9.70
2018-09-23T17:36:30.038Z,9.60
2018-09-23T17:39:01.559Z,9.60
2018-09-23T17:41:30.146Z,9.60
2018-09-23T17:47:01.620Z,9.60
2018-09-23T17:49:34.112Z,9.50
2018-09-23T17:52:02.627Z,9.50
2018-09-23T17:54:34.923Z,9.40
2018-09-23T17:57:03.574Z,9.40
2018-09-23T17:59:32.123Z,9.40
2018-09-23T18:02:03.572Z,9.40
2018-09-23T18:04:32.094Z,9.40
2018-09-23T18:07:00.759Z,9.40
2018-09-23T18:09:33.060Z,9.30
2018-09-23T18:12:01.635Z,9.30
2018-09-23T18:14:33.974Z,9.30
2018-09-23T18:17:05.764Z,9.30
2018-09-23T18:19:37.488Z,9.30
2018-09-23T18:22:06.112Z,9.20
2018-09-23T18:24:34.651Z,9.20
2018-09-23T18:27:08.043Z,9.20
2018-09-23T18:29:36.602Z,9.20
2018-09-23T18:32:08.829Z,9.20
2018-09-23T18:34:37.389Z,9.20
2018-09-23T18:37:06.003Z,9.10
2018-09-23T18:39:37.485Z,9.10
2018-09-23T18:42:06.087Z,9.00
2018-09-23T18:44:34.665Z,9.00
2018-09-23T18:47:06.888Z,8.90
2018-09-23T18:49:35.501Z,8.90
2018-09-23T18:52:07.778Z,8.90
2018-09-23T18:54:41.741Z,8.90
2018-09-23T18:57:14.179Z,8.90
2018-09-23T18:59:42.768Z,8.80
2018-09-23T19:02:15.957Z,8.70
2018-09-23T19:04:44.506Z,8.80
2018-09-23T19:07:16.820Z,8.70
2018-09-23T19:09:45.397Z,8.70
2018-09-23T19:12:13.890Z,8.70
2018-09-23T19:14:45.442Z,8.70
2018-09-23T19:17:17.188Z,8.60
2018-09-23T19:19:54.502Z,8.60
2018-09-23T19:22:28.265Z,8.60
2018-09-23T19:25:04.662Z,8.60
2018-09-23T19:27:33.184Z,8.60
2018-09-23T19:30:06.157Z,8.60
2018-09-23T19:32:34.710Z,8.60
2018-09-23T19:35:07.907Z,8.60
2018-09-23T19:37:36.410Z,8.60
2018-09-23T19:40:04.945Z,8.50
2018-09-23T19:42:41.555Z,8.50
2018-09-23T19:45:10.110Z,8.50
2018-09-23T19:47:38.694Z,8.50
2018-09-23T19:50:14.627Z,8.50
2018-09-23T19:52:43.166Z,8.50
2018-09-23T19:55:16.069Z,8.50
2018-09-23T19:57:44.590Z,8.50
2018-09-23T20:00:13.126Z,8.50
2018-09-23T20:02:44.631Z,8.50
2018-09-23T20:05:13.162Z,8.50
2018-09-23T20:07:41.728Z,8.50
2018-09-23T20:10:14.049Z,8.50
2018-09-23T20:12:42.666Z,8.50
2018-09-23T20:15:20.758Z,8.50
2018-09-23T20:17:52.073Z,8.40
2018-09-23T20:20:23.960Z,8.40
2018-09-23T20:22:52.463Z,8.40
2018-09-23T20:25:20.980Z,8.40
2018-09-23T20:27:52.539Z,8.40
2018-09-23T20:30:21.017Z,8.40
2018-09-23T20:32:49.509Z,8.40
2018-09-23T20:35:22.140Z,8.40
2018-09-23T20:37:50.862Z,8.40
2018-09-23T20:40:22.932Z,8.50
2018-09-23T20:42:51.451Z,8.40
2018-09-23T20:45:19.928Z,8.50
2018-09-23T20:47:51.638Z,8.50
2018-09-23T20:50:20.173Z,8.50
2018-09-23T20:52:48.661Z,8.50
2018-09-23T20:55:21.083Z,8.50
2018-09-23T20:57:49.624Z,8.50
2018-09-23T21:00:18.157Z,8.50
2018-09-23T21:02:49.698Z,8.50
2018-09-23T21:05:18.205Z,8.50
2018-09-23T21:07:46.669Z,8.60
2018-09-23T21:10:19.209Z,8.50
2018-09-23T21:12:47.657Z,8.50
2018-09-23T21:15:20.165Z,8.50
2018-09-23T21:17:55.951Z,8.50
2018-09-23T21:20:28.260Z,8.50
2018-09-23T21:22:56.730Z,8.50
2018-09-23T21:25:29.107Z,8.50
2018-09-23T21:27:57.616Z,8.50
2018-09-23T21:30:26.088Z,8.40
2018-09-23T21:32:57.616Z,8.40
2018-09-23T21:35:26.119Z,8.40
2018-09-23T21:37:54.706Z,8.40
2018-09-23T21:40:27.186Z,8.30
2018-09-23T21:42:55.648Z,8.30
2018-09-23T21:45:28.034Z,8.30
2018-09-23T21:47:57.091Z,8.30
2018-09-23T21:50:28.900Z,8.30
2018-09-23T21:52:57.380Z,8.30
2018-09-23T21:55:25.953Z,8.30
2018-09-23T21:57:57.483Z,8.30
2018-09-23T22:00:30.273Z,8.30
2018-09-23T22:03:02.098Z,8.30
2018-09-23T22:05:30.600Z,8.30
2018-09-23T22:07:59.060Z,8.30
2018-09-23T22:10:30.618Z,8.30
2018-09-23T22:12:59.181Z,8.30
2018-09-23T22:15:27.662Z,8.30
2018-09-23T22:18:03.770Z,8.30
2018-09-23T22:20:32.237Z,8.30
2018-09-23T22:23:00.680Z,8.30
2018-09-23T22:25:33.293Z,8.30
2018-09-23T22:28:01.810Z,8.30
2018-09-23T22:30:34.162Z,8.30
2018-09-23T22:33:02.629Z,8.30
2018-09-23T22:35:35.013Z,8.30
2018-09-23T22:38:03.542Z,8.30
2018-09-23T22:40:32.026Z,8.30
2018-09-23T22:43:03.583Z,8.40
2018-09-23T22:45:32.061Z,8.30
2018-09-23T22:48:00.502Z,8.40
2018-09-23T22:50:33.185Z,8.30
2018-09-23T22:53:01.658Z,8.40
2018-09-23T22:55:30.120Z,8.40
2018-09-23T22:58:01.708Z,8.40
2018-09-23T23:00:30.232Z,8.40
2018-09-23T23:02:58.682Z,8.40
2018-09-23T23:05:34.848Z,8.40
2018-09-23T23:08:03.327Z,8.40
2018-09-23T23:10:34.789Z,8.40
2018-09-23T23:13:03.294Z,8.40
2018-09-23T23:15:31.740Z,8.40
2018-09-23T23:18:07.012Z,8.30
2018-09-23T23:20:35.503Z,8.30
2018-09-23T23:23:03.968Z,8.30
2018-09-23T23:25:35.653Z,8.30
2018-09-23T23:28:04.084Z,8.20
2018-09-23T23:30:32.642Z,8.20
2018-09-23T23:33:05.188Z,8.20
2018-09-23T23:35:33.709Z,8.20
2018-09-23T23:38:02.223Z,8.20
2018-09-23T23:40:33.721Z,8.10
2018-09-23T23:43:02.260Z,8.10
2018-09-23T23:45:30.701Z,8.10
2018-09-23T23:48:03.263Z,8.10
2018-09-23T23:50:31.710Z,8.00
2018-09-23T23:53:04.128Z,8.00
2018-09-23T23:55:32.610Z,8.00
2018-09-23T23:58:01.083Z,8.00
